createdAt,value
2017-07-16T00:01:25.497Z,43.24
2017-07-16T00:03:53.047Z,43.21
2017-07-16T00:06:20.567Z,43.23
2017-07-16T00:08:48.115Z,43.24
2017-07-16T00:11:15.634Z,43.23
2017-07-16T00:13:43.244Z,43.26
2017-07-16T00:16:10.760Z,43.25
2017-07-16T00:18:38.273Z,43.24
2017-07-16T00:21:05.821Z,43.26
2017-07-16T00:23:33.329Z,43.33
2017-07-16T00:26:00.884Z,43.31
2017-07-16T00:28:28.413Z,43.43
2017-07-16T00:30:56.002Z,43.52
2017-07-16T00:33:23.529Z,43.50
2017-07-16T00:35:51.077Z,43.52
2017-07-16T00:38:18.589Z,43.50
2017-07-16T00:40:46.157Z,43.59
2017-07-16T00:43:13.700Z,43.68
2017-07-16T00:45:41.244Z,43.64
2017-07-16T00:48:08.757Z,43.71
2017-07-16T00:50:36.303Z,43.77
2017-07-16T00:53:03.817Z,43.81
2017-07-16T00:55:31.364Z,43.78
2017-07-16T00:57:58.884Z,43.85
2017-07-16T01:00:26.443Z,43.91
2017-07-16T01:02:53.953Z,44.04
2017-07-16T01:05:21.530Z,43.96
2017-07-16T01:07:49.041Z,44.00
2017-07-16T01:10:16.555Z,44.05
2017-07-16T01:12:44.119Z,44.06
2017-07-16T01:15:11.666Z,44.12
2017-07-16T01:17:39.215Z,44.25
2017-07-16T01:20:06.858Z,44.24
2017-07-16T01:22:34.415Z,44.26
2017-07-16T01:25:01.937Z,44.33
2017-07-16T01:27:29.497Z,44.29
2017-07-16T01:29:57.026Z,44.32
2017-07-16T01:32:24.570Z,44.33
2017-07-16T01:34:52.090Z,44.45
2017-07-16T01:37:19.707Z,44.43
2017-07-16T01:39:47.221Z,44.49
2017-07-16T01:42:14.789Z,44.47
2017-07-16T01:44:42.311Z,44.57
2017-07-16T01:47:09.863Z,44.49
2017-07-16T01:49:37.382Z,44.68
2017-07-16T01:52:04.930Z,44.61
2017-07-16T01:54:32.450Z,44.67
2017-07-16T01:56:59.967Z,44.70
2017-07-16T01:59:27.525Z,44.60
2017-07-16T02:01:55.061Z,44.75
2017-07-16T02:04:22.610Z,44.75
2017-07-16T02:06:50.123Z,44.86
2017-07-16T02:09:17.669Z,44.86
2017-07-16T02:11:45.222Z,44.76
2017-07-16T02:14:12.783Z,44.81
2017-07-16T02:16:40.341Z,44.85
2017-07-16T02:19:07.894Z,44.93
2017-07-16T02:21:35.419Z,44.93
2017-07-16T02:24:02.966Z,44.95
2017-07-16T02:26:30.527Z,45.03
2017-07-16T02:28:58.060Z,44.97
2017-07-16T02:31:25.569Z,45.14
2017-07-16T02:33:53.159Z,45.26
2017-07-16T02:36:20.711Z,45.20
2017-07-16T02:38:48.265Z,45.17
2017-07-16T02:41:15.781Z,45.08
2017-07-16T02:43:43.334Z,45.07
2017-07-16T02:46:10.851Z,45.08
2017-07-16T02:48:38.380Z,45.13
2017-07-16T02:51:05.934Z,45.14
2017-07-16T02:53:33.449Z,45.23
2017-07-16T02:56:01.001Z,45.23
2017-07-16T02:58:28.514Z,45.23
2017-07-16T03:00:56.081Z,45.42
2017-07-16T03:03:23.602Z,45.33
2017-07-16T03:05:51.163Z,45.37
2017-07-16T03:08:18.685Z,45.34
2017-07-16T03:10:46.226Z,45.43
2017-07-16T03:13:13.737Z,45.47
2017-07-16T03:15:41.278Z,45.39
2017-07-16T03:18:08.826Z,45.40
2017-07-16T03:20:36.383Z,45.45
2017-07-16T03:23:03.903Z,45.49
2017-07-16T03:25:37.442Z,45.56
2017-07-16T03:28:05.005Z,45.48
2017-07-16T03:30:32.558Z,45.57
2017-07-16T03:33:00.122Z,45.52
2017-07-16T03:35:27.635Z,45.54
2017-07-16T03:37:55.181Z,45.68
2017-07-16T03:40:22.702Z,45.59
2017-07-16T03:42:50.256Z,45.69
2017-07-16T03:45:17.774Z,45.73
2017-07-16T03:47:45.383Z,45.66
2017-07-16T03:50:12.895Z,45.55
2017-07-16T03:52:40.441Z,45.61
2017-07-16T03:55:07.952Z,45.58
2017-07-16T03:57:35.497Z,45.62
2017-07-16T04:00:03.008Z,45.55
2017-07-16T04:02:30.637Z,45.59
2017-07-16T04:04:58.199Z,45.56
2017-07-16T04:07:25.745Z,45.60
2017-07-16T04:09:53.271Z,45.61
2017-07-16T04:12:20.825Z,45.57
2017-07-16T04:14:48.346Z,45.58
2017-07-16T04:17:15.912Z,45.75
2017-07-16T04:19:43.453Z,45.74
2017-07-16T04:22:11.021Z,45.79
2017-07-16T04:24:38.533Z,45.77
2017-07-16T04:27:06.052Z,45.72
2017-07-16T04:29:33.605Z,45.78
2017-07-16T04:32:01.133Z,45.79
2017-07-16T04:34:28.710Z,45.87
2017-07-16T04:36:56.221Z,45.83
2017-07-16T04:39:23.765Z,45.80
2017-07-16T04:41:51.289Z,45.81
2017-07-16T04:44:18.844Z,45.86
2017-07-16T04:46:46.363Z,45.84
2017-07-16T04:49:13.913Z,45.94
2017-07-16T04:51:41.444Z,45.98
2017-07-16T04:54:09.000Z,45.95
2017-07-16T04:56:36.519Z,46.08
2017-07-16T04:59:04.078Z,46.03
2017-07-16T05:01:31.594Z,46.00
2017-07-16T05:03:59.140Z,46.19
2017-07-16T05:06:26.667Z,46.19
2017-07-16T05:08:54.215Z,46.26
2017-07-16T05:11:21.780Z,46.17
2017-07-16T05:13:49.361Z,46.26
2017-07-16T05:16:16.879Z,46.28
2017-07-16T05:18:44.402Z,46.31
2017-07-16T05:21:11.945Z,46.30
2017-07-16T05:23:39.466Z,46.41
2017-07-16T05:26:07.056Z,46.43
2017-07-16T05:28:34.615Z,46.36
2017-07-16T05:31:02.281Z,46.38
2017-07-16T05:33:29.802Z,46.39
2017-07-16T05:35:57.341Z,46.38
2017-07-16T05:38:24.868Z,46.39
2017-07-16T05:40:52.519Z,46.43
2017-07-16T05:43:20.052Z,46.49
2017-07-16T05:45:47.603Z,46.65
2017-07-16T05:48:15.122Z,46.58
2017-07-16T05:50:42.674Z,46.51
2017-07-16T05:53:10.233Z,46.51
2017-07-16T05:55:37.795Z,46.53
2017-07-16T05:58:05.314Z,46.57
2017-07-16T06:00:32.861Z,46.59
2017-07-16T06:03:00.450Z,46.50
2017-07-16T06:05:28.010Z,46.47
2017-07-16T06:07:55.529Z,46.51
2017-07-16T06:10:23.049Z,46.57
2017-07-16T06:12:50.596Z,46.55
2017-07-16T06:15:18.150Z,46.59
2017-07-16T06:17:45.701Z,46.61
2017-07-16T06:20:13.224Z,46.65
2017-07-16T06:22:40.760Z,46.65
2017-07-16T06:25:08.272Z,46.64
2017-07-16T06:27:35.829Z,46.69
2017-07-16T06:30:03.342Z,46.84
2017-07-16T06:32:30.964Z,46.73
2017-07-16T06:34:58.479Z,46.95
2017-07-16T06:37:26.037Z,46.97
2017-07-16T06:39:53.559Z,47.03
2017-07-16T06:42:21.202Z,47.05
2017-07-16T06:44:48.717Z,46.98
2017-07-16T06:47:16.265Z,47.23
2017-07-16T06:49:43.791Z,47.14
2017-07-16T06:52:11.351Z,47.16
2017-07-16T06:54:38.899Z,47.17
2017-07-16T06:57:06.420Z,47.24
2017-07-16T06:59:33.970Z,47.23
2017-07-16T07:02:01.484Z,47.23
2017-07-16T07:04:29.038Z,47.36
2017-07-16T07:06:56.569Z,48.41
2017-07-16T07:09:24.153Z,48.36
2017-07-16T07:11:51.678Z,48.56
2017-07-16T07:14:19.226Z,48.38
2017-07-16T07:16:46.742Z,48.67
2017-07-16T07:19:14.296Z,48.50
2017-07-16T07:21:41.822Z,48.35
2017-07-16T07:24:09.408Z,48.28
2017-07-16T07:26:36.937Z,48.47
2017-07-16T07:29:04.482Z,48.68
2017-07-16T07:31:31.992Z,48.77
2017-07-16T07:33:59.557Z,48.89
2017-07-16T07:36:27.077Z,49.39
2017-07-16T07:38:54.726Z,48.92
2017-07-16T07:41:22.248Z,48.92
2017-07-16T07:43:49.762Z,49.06
2017-07-16T07:46:17.315Z,48.98
2017-07-16T07:48:44.823Z,49.14
2017-07-16T07:51:12.369Z,49.22
2017-07-16T07:53:39.893Z,49.35
2017-07-16T07:56:07.453Z,49.69
2017-07-16T07:58:34.981Z,49.22
2017-07-16T08:01:02.535Z,49.27
2017-07-16T08:03:30.052Z,49.72
2017-07-16T08:05:57.601Z,49.46
2017-07-16T08:08:25.119Z,49.51
2017-07-16T08:10:52.666Z,49.26
2017-07-16T08:13:20.186Z,48.97
2017-07-16T08:15:47.742Z,49.19
2017-07-16T08:18:15.269Z,49.36
2017-07-16T08:20:42.820Z,49.22
2017-07-16T08:23:10.345Z,49.00
2017-07-16T08:25:38.274Z,48.93
2017-07-16T08:28:05.804Z,48.98
2017-07-16T08:30:33.321Z,48.91
2017-07-16T08:33:00.872Z,49.02
2017-07-16T08:35:28.414Z,49.00
2017-07-16T08:37:55.962Z,48.89
2017-07-16T08:40:23.486Z,48.96
2017-07-16T08:42:51.034Z,49.17
2017-07-16T08:45:18.558Z,49.22
2017-07-16T08:47:46.096Z,49.11
2017-07-16T08:50:13.605Z,48.88
2017-07-16T08:52:41.158Z,48.88
2017-07-16T08:55:08.673Z,48.97
2017-07-16T08:57:36.228Z,48.96
2017-07-16T09:00:03.748Z,48.82
2017-07-16T09:02:31.298Z,48.66
2017-07-16T09:04:58.814Z,48.46
2017-07-16T09:07:26.359Z,48.56
2017-07-16T09:09:53.874Z,48.41
2017-07-16T09:12:21.423Z,48.36
2017-07-16T09:14:48.938Z,48.27
2017-07-16T09:17:16.503Z,48.11
2017-07-16T09:19:44.011Z,48.20
2017-07-16T09:22:11.515Z,47.56
2017-07-16T09:24:39.063Z,47.61
2017-07-16T09:27:06.577Z,47.21
2017-07-16T09:29:34.133Z,47.18
2017-07-16T09:32:01.641Z,47.18
2017-07-16T09:34:29.191Z,47.38
2017-07-16T09:36:56.710Z,47.52
2017-07-16T09:39:24.256Z,47.65
2017-07-16T09:41:51.780Z,47.91
2017-07-16T09:44:19.351Z,48.09
2017-07-16T09:46:46.991Z,48.05
2017-07-16T09:49:14.570Z,47.99
2017-07-16T09:51:42.086Z,48.04
2017-07-16T09:54:09.636Z,48.06
2017-07-16T09:56:37.155Z,48.10
2017-07-16T09:59:04.711Z,48.36
2017-07-16T10:01:32.226Z,48.57
2017-07-16T10:03:59.781Z,48.53
2017-07-16T10:06:27.300Z,49.16
2017-07-16T10:08:54.827Z,48.93
2017-07-16T10:11:22.371Z,47.17
2017-07-16T10:13:49.888Z,48.15
2017-07-16T10:16:17.442Z,48.52
2017-07-16T10:18:44.967Z,48.33
2017-07-16T10:21:12.521Z,48.56
2017-07-16T10:23:40.039Z,48.56
2017-07-16T10:26:07.588Z,48.27
2017-07-16T10:28:35.114Z,48.47
2017-07-16T10:31:02.661Z,48.57
2017-07-16T10:33:30.186Z,48.61
2017-07-16T10:35:57.746Z,48.60
2017-07-16T10:38:25.269Z,48.60
2017-07-16T10:40:52.818Z,48.56
2017-07-16T10:43:20.337Z,48.59
2017-07-16T10:45:47.885Z,48.57
2017-07-16T10:48:15.407Z,48.48
2017-07-16T10:50:42.959Z,48.65
2017-07-16T10:53:10.485Z,48.49
2017-07-16T10:55:38.048Z,48.46
2017-07-16T10:58:05.567Z,48.29
2017-07-16T11:00:33.082Z,48.39
2017-07-16T11:03:00.631Z,48.33
2017-07-16T11:05:28.144Z,48.46
2017-07-16T11:07:55.693Z,48.47
2017-07-16T11:10:23.213Z,48.39
2017-07-16T11:12:50.762Z,48.37
2017-07-16T11:15:18.286Z,48.42
2017-07-16T11:17:45.825Z,48.37
2017-07-16T11:20:13.345Z,48.23
2017-07-16T11:22:40.903Z,48.30
2017-07-16T11:25:08.419Z,48.19
2017-07-16T11:27:35.962Z,48.19
2017-07-16T11:30:03.479Z,48.25
2017-07-16T11:32:31.022Z,48.31
2017-07-16T11:34:58.542Z,48.35
2017-07-16T11:37:26.091Z,48.29
2017-07-16T11:39:53.618Z,48.24
2017-07-16T11:42:21.170Z,48.28
2017-07-16T11:44:48.819Z,48.24
2017-07-16T11:47:16.344Z,48.24
2017-07-16T11:49:43.897Z,48.29
2017-07-16T11:52:11.419Z,48.27
2017-07-16T11:54:38.957Z,48.20
2017-07-16T11:57:06.481Z,48.08
2017-07-16T11:59:34.040Z,48.09
2017-07-16T12:02:01.555Z,48.16
2017-07-16T12:04:29.101Z,48.08
2017-07-16T12:06:56.618Z,48.05
2017-07-16T12:09:24.161Z,47.99
2017-07-16T12:11:51.676Z,47.99
2017-07-16T12:14:19.213Z,48.00
2017-07-16T12:16:46.724Z,48.01
2017-07-16T12:19:14.283Z,48.00
2017-07-16T12:21:41.801Z,48.00
2017-07-16T12:24:09.350Z,47.97
2017-07-16T12:26:36.860Z,47.97
2017-07-16T12:29:04.412Z,47.99
2017-07-16T12:31:31.930Z,47.96
2017-07-16T12:33:59.504Z,47.97
2017-07-16T12:36:27.021Z,47.94
2017-07-16T12:38:54.646Z,47.97
2017-07-16T12:41:22.213Z,47.98
2017-07-16T12:43:49.729Z,47.96
2017-07-16T12:46:17.283Z,47.93
2017-07-16T12:48:44.846Z,48.03
2017-07-16T12:51:12.394Z,47.91
2017-07-16T12:53:39.910Z,47.93
2017-07-16T12:56:07.461Z,47.90
2017-07-16T12:58:34.975Z,47.94
2017-07-16T13:01:02.527Z,47.95
2017-07-16T13:03:30.049Z,47.86
2017-07-16T13:05:57.591Z,47.94
2017-07-16T13:08:25.105Z,47.83
2017-07-16T13:10:52.666Z,47.85
2017-07-16T13:13:20.180Z,47.83
2017-07-16T13:15:47.720Z,47.83
2017-07-16T13:18:15.242Z,47.83
2017-07-16T13:20:42.790Z,47.83
2017-07-16T13:23:10.306Z,47.82
2017-07-16T13:25:37.820Z,47.86
2017-07-16T13:28:05.376Z,47.83
2017-07-16T13:30:32.902Z,47.85
2017-07-16T13:33:00.450Z,47.85
2017-07-16T13:35:27.964Z,47.91
2017-07-16T13:37:55.515Z,47.89
2017-07-16T13:40:23.035Z,47.84
2017-07-16T13:42:50.588Z,47.85
2017-07-16T13:45:18.105Z,47.86
2017-07-16T13:47:45.652Z,47.84
2017-07-16T13:50:13.166Z,47.91
2017-07-16T13:52:40.718Z,47.82
2017-07-16T13:55:08.232Z,47.85
2017-07-16T13:57:35.780Z,47.82
2017-07-16T14:00:03.283Z,47.90
2017-07-16T14:02:30.824Z,47.84
2017-07-16T14:04:58.333Z,47.83
2017-07-16T14:07:25.875Z,47.91
2017-07-16T14:09:53.397Z,47.88
2017-07-16T14:12:20.944Z,47.89
2017-07-16T14:14:48.460Z,47.93
2017-07-16T14:17:15.975Z,47.99
2017-07-16T14:19:43.525Z,48.00
2017-07-16T14:22:11.054Z,48.00
2017-07-16T14:24:38.615Z,47.93
2017-07-16T14:27:06.132Z,48.00
2017-07-16T14:29:33.676Z,47.97
2017-07-16T14:32:01.183Z,47.96
2017-07-16T14:34:28.739Z,47.97
2017-07-16T14:36:56.350Z,47.97
2017-07-16T14:39:23.899Z,47.97
2017-07-16T14:41:51.414Z,44.25
2017-07-16T14:44:18.957Z,42.73
2017-07-16T14:46:50.541Z,42.49
2017-07-16T14:49:18.612Z,43.51
2017-07-16T14:51:46.242Z,43.39
2017-07-16T14:54:13.811Z,43.68
2017-07-16T14:56:41.332Z,43.66
2017-07-16T14:59:08.887Z,43.72
2017-07-16T15:01:36.415Z,43.90
2017-07-16T15:04:03.982Z,44.11
2017-07-16T15:06:31.501Z,44.15
2017-07-16T15:08:59.021Z,45.28
2017-07-16T15:11:26.568Z,45.21
2017-07-16T15:13:54.179Z,45.08
2017-07-16T15:16:21.720Z,45.20
2017-07-16T15:18:49.229Z,45.38
2017-07-16T15:21:16.769Z,45.43
2017-07-16T15:23:44.292Z,45.64
2017-07-16T15:26:11.837Z,46.22
2017-07-16T15:28:39.356Z,46.19
2017-07-16T15:31:06.900Z,45.99
2017-07-16T15:33:34.428Z,46.04
2017-07-16T15:36:01.970Z,46.05
2017-07-16T15:38:29.486Z,46.06
2017-07-16T15:40:57.032Z,46.15
2017-07-16T15:43:24.541Z,46.40
2017-07-16T15:45:52.099Z,46.63
2017-07-16T15:48:19.766Z,46.95
2017-07-16T15:50:47.347Z,47.02
2017-07-16T15:53:14.866Z,48.18
2017-07-16T15:55:42.426Z,48.29
2017-07-16T15:58:09.963Z,48.24
2017-07-16T16:00:37.482Z,48.34
2017-07-16T16:03:05.037Z,48.36
2017-07-16T16:05:32.562Z,48.47
2017-07-16T16:08:00.112Z,48.45
2017-07-16T16:10:27.642Z,48.40
2017-07-16T16:12:55.206Z,48.67
2017-07-16T16:15:22.722Z,48.67
2017-07-16T16:17:50.277Z,48.85
2017-07-16T16:20:17.801Z,49.00
2017-07-16T16:22:45.353Z,49.51
2017-07-16T16:25:12.867Z,49.92
2017-07-16T16:27:40.425Z,50.18
2017-07-16T16:30:07.942Z,49.45
2017-07-16T16:32:35.494Z,49.76
2017-07-16T16:35:03.005Z,49.44
2017-07-16T16:37:30.571Z,49.47
2017-07-16T16:39:58.102Z,49.27
2017-07-16T16:42:25.612Z,48.80
2017-07-16T16:44:53.163Z,48.08
2017-07-16T16:47:21.478Z,47.80
2017-07-16T16:49:51.220Z,48.05
2017-07-16T16:52:18.999Z,48.25
2017-07-16T16:54:46.804Z,47.80
2017-07-16T16:57:14.443Z,47.53
2017-07-16T16:59:42.335Z,47.91
2017-07-16T17:02:10.743Z,47.88
2017-07-16T17:04:38.352Z,47.86
2017-07-16T17:07:05.909Z,47.82
2017-07-16T17:09:34.872Z,47.73
2017-07-16T17:12:02.668Z,47.51
2017-07-16T17:14:30.546Z,47.63
2017-07-16T17:17:00.513Z,47.60
2017-07-16T17:19:29.667Z,47.42
2017-07-16T17:21:59.853Z,47.38
2017-07-16T17:24:28.066Z,47.64
2017-07-16T17:26:57.062Z,47.48
2017-07-16T17:29:24.929Z,47.30
2017-07-16T17:31:52.918Z,47.28
2017-07-16T17:34:20.876Z,47.54
2017-07-16T17:36:49.460Z,47.70
2017-07-16T17:39:17.632Z,47.72
2017-07-16T17:41:45.228Z,47.40
2017-07-16T17:44:13.124Z,47.49
2017-07-16T17:46:40.966Z,47.39
2017-07-16T17:49:08.908Z,47.46
2017-07-16T17:51:36.677Z,46.92
2017-07-16T17:54:04.456Z,47.32
2017-07-16T17:56:32.483Z,47.28
2017-07-16T17:59:00.297Z,47.33
2017-07-16T18:01:28.918Z,47.24
2017-07-16T18:03:56.735Z,47.21
2017-07-16T18:06:24.514Z,46.96
2017-07-16T18:08:52.514Z,47.20
2017-07-16T18:11:21.176Z,47.03
2017-07-16T18:13:49.858Z,47.02
2017-07-16T18:16:17.622Z,46.92
2017-07-16T18:18:45.530Z,46.76
2017-07-16T18:21:13.474Z,47.09
2017-07-16T18:23:41.336Z,47.00
2017-07-16T18:26:08.859Z,47.17
2017-07-16T18:28:36.400Z,47.08
2017-07-16T18:31:03.974Z,47.15
2017-07-16T18:33:31.596Z,47.30
2017-07-16T18:35:59.255Z,47.81
2017-07-16T18:38:26.813Z,47.75
2017-07-16T18:40:54.412Z,47.95
2017-07-16T18:43:22.072Z,47.59
2017-07-16T18:45:49.596Z,47.34
2017-07-16T18:48:17.442Z,47.24
2017-07-16T18:50:45.433Z,47.56
2017-07-16T18:53:13.681Z,47.36
2017-07-16T18:55:41.522Z,47.83
2017-07-16T18:58:09.975Z,48.01
2017-07-16T19:00:38.063Z,48.77
2017-07-16T19:03:05.939Z,47.86
2017-07-16T19:05:33.930Z,47.81
2017-07-16T19:08:01.671Z,47.81
2017-07-16T19:10:29.996Z,48.17
2017-07-16T19:12:57.888Z,47.98
2017-07-16T19:15:25.947Z,48.19
2017-07-16T19:17:56.201Z,48.39
2017-07-16T19:20:24.326Z,48.56
2017-07-16T19:22:52.078Z,48.63
2017-07-16T19:25:19.824Z,48.59
2017-07-16T19:27:48.076Z,48.78
2017-07-16T19:30:16.081Z,48.69
2017-07-16T19:32:43.888Z,48.68
2017-07-16T19:35:12.403Z,49.08
2017-07-16T19:37:40.546Z,48.91
2017-07-16T19:40:08.995Z,49.03
2017-07-16T19:42:37.569Z,49.03
2017-07-16T19:45:05.540Z,48.99
2017-07-16T19:47:33.201Z,49.09
2017-07-16T19:50:00.958Z,49.04
2017-07-16T19:52:28.884Z,49.30
2017-07-16T19:54:57.478Z,49.03
2017-07-16T19:57:25.654Z,49.13
2017-07-16T19:59:53.686Z,49.35
2017-07-16T20:02:21.663Z,49.24
2017-07-16T20:04:49.399Z,49.21
2017-07-16T20:07:16.979Z,49.42
2017-07-16T20:09:45.075Z,49.65
2017-07-16T20:12:13.617Z,49.86
2017-07-16T20:14:41.184Z,49.63
2017-07-16T20:17:09.272Z,49.81
2017-07-16T20:19:37.368Z,49.78
2017-07-16T20:22:06.918Z,49.75
2017-07-16T20:24:38.759Z,49.82
2017-07-16T20:27:09.994Z,49.89
2017-07-16T20:29:39.492Z,49.94
2017-07-16T20:32:12.644Z,50.02
2017-07-16T20:34:43.726Z,50.05
2017-07-16T20:37:17.066Z,50.22
2017-07-16T20:39:47.975Z,50.21
2017-07-16T20:42:23.236Z,50.11
2017-07-16T20:44:57.630Z,50.24
2017-07-16T20:47:28.207Z,50.71
2017-07-16T20:49:58.022Z,50.82
2017-07-16T20:52:37.626Z,50.96
2017-07-16T20:55:09.636Z,51.23
2017-07-16T20:57:43.067Z,50.86
2017-07-16T21:00:15.985Z,50.70
2017-07-16T21:02:46.618Z,50.54
2017-07-16T21:05:20.139Z,50.39
2017-07-16T21:07:52.477Z,50.58
2017-07-16T21:10:23.058Z,50.40
2017-07-16T21:12:53.951Z,50.53
2017-07-16T21:15:23.810Z,50.65
2017-07-16T21:17:55.800Z,50.69
2017-07-16T21:20:28.463Z,50.73
2017-07-16T21:22:58.450Z,50.80
2017-07-16T21:25:29.992Z,50.85
2017-07-16T21:28:02.370Z,51.01
2017-07-16T21:30:37.124Z,51.10
2017-07-16T21:33:09.610Z,51.22
2017-07-16T21:35:39.703Z,51.33
2017-07-16T21:38:10.866Z,51.41
2017-07-16T21:40:44.565Z,51.69
2017-07-16T21:43:15.795Z,51.84
2017-07-16T21:45:46.313Z,51.89
2017-07-16T21:48:16.221Z,52.24
2017-07-16T21:50:48.985Z,52.39
2017-07-16T21:53:21.385Z,52.87
2017-07-16T21:55:50.349Z,53.23
2017-07-16T21:58:21.699Z,53.34
2017-07-16T22:00:52.216Z,53.77
2017-07-16T22:03:22.839Z,53.48
2017-07-16T22:05:53.595Z,53.73
2017-07-16T22:08:27.163Z,53.68
2017-07-16T22:11:06.855Z,53.90
2017-07-16T22:13:37.851Z,53.37
2017-07-16T22:16:06.512Z,53.40
2017-07-16T22:18:41.167Z,53.38
2017-07-16T22:21:10.937Z,53.26
2017-07-16T22:23:39.538Z,53.35
2017-07-16T22:26:09.647Z,53.42
2017-07-16T22:28:45.448Z,53.54
2017-07-16T22:31:15.798Z,53.55
2017-07-16T22:33:45.445Z,53.77
2017-07-16T22:36:17.477Z,53.85
2017-07-16T22:38:44.993Z,53.91
2017-07-16T22:41:16.010Z,54.05
2017-07-16T22:43:46.723Z,54.01
2017-07-16T22:46:21.118Z,54.10
2017-07-16T22:48:52.055Z,54.02
2017-07-16T22:51:21.692Z,54.06
2017-07-16T22:53:49.431Z,53.88
2017-07-16T22:56:21.806Z,54.04
2017-07-16T22:58:52.451Z,53.97
2017-07-16T23:01:23.789Z,53.96
2017-07-16T23:03:53.629Z,54.04
2017-07-16T23:06:23.754Z,54.01
2017-07-16T23:08:53.442Z,53.91
2017-07-16T23:11:34.489Z,53.96
2017-07-16T23:14:03.034Z,53.99
2017-07-16T23:16:37.216Z,53.87
2017-07-16T23:19:06.404Z,54.01
2017-07-16T23:21:34.700Z,53.88
2017-07-16T23:24:05.612Z,54.10
2017-07-16T23:26:36.640Z,54.24
2017-07-16T23:29:09.573Z,54.44
2017-07-16T23:31:37.224Z,54.50
2017-07-16T23:34:05.227Z,54.39
2017-07-16T23:36:37.027Z,54.62
2017-07-16T23:39:08.977Z,54.51
2017-07-16T23:41:42.652Z,54.45
2017-07-16T23:44:14.656Z,54.36
2017-07-16T23:46:51.156Z,54.27
2017-07-16T23:49:28.254Z,54.16
2017-07-16T23:51:57.801Z,54.21
2017-07-16T23:57:01.360Z,54.21
2017-07-16T23:59:35.518Z,54.36
